Time;durP1;ratioP1;P1;durP2;ratioP2;P2;SDS_P1;SDS_P2;PMS_P1;PMS_P2;Temp;Humidity;BMP_temperature;BMP_pressure;BME280_temperature;BME280_humidity;BME280_pressure;Samples;Min_cycle;Max_cycle;Signal;HPM_P1;HPM_P2
2022/05/15 00:02:07;;;;;;;4.13;2.78;;;14.70;66.70;;;;;;5043672;28;20418;-64
2022/05/15 00:04:33;;;;;;;5.18;3.25;;;14.70;66.40;;;;;;5045008;28;20576;-64
2022/05/15 00:06:58;;;;;;;6.70;3.05;;;14.70;66.40;;;;;;5044172;28;20037;-64
2022/05/15 00:09:24;;;;;;;5.35;3.10;;;14.70;66.40;;;;;;5046904;28;20064;-64
2022/05/15 00:11:50;;;;;;;4.75;3.10;;;14.70;66.30;;;;;;5045452;28;20039;-64
2022/05/15 00:14:16;;;;;;;4.85;2.90;;;14.70;66.40;;;;;;5047921;28;20040;-64
2022/05/15 00:16:42;;;;;;;3.33;2.65;;;14.60;66.20;;;;;;5043170;28;20142;-64
2022/05/15 00:19:07;;;;;;;4.72;2.55;;;14.60;66.40;;;;;;5042340;28;20047;-64
2022/05/15 00:21:35;;;;;;;5.53;2.83;;;14.50;66.50;;;;;;5040058;28;20672;-64
2022/05/15 00:24:00;;;;;;;3.28;2.90;;;14.50;66.70;;;;;;5050662;28;20120;-64
2022/05/15 00:26:26;;;;;;;4.00;2.85;;;14.50;66.60;;;;;;5046022;28;20033;-65
2022/05/15 00:28:52;;;;;;;6.60;3.15;;;14.50;66.60;;;;;;5050254;28;20074;-65
2022/05/15 00:31:18;;;;;;;3.15;2.55;;;14.40;66.60;;;;;;5041505;28;20532;-65
2022/05/15 00:33:44;;;;;;;2.90;2.60;;;14.40;66.60;;;;;;5043718;28;20098;-65
2022/05/15 00:36:11;;;;;;;4.13;2.65;;;14.40;66.50;;;;;;5048547;28;20598;-64
2022/05/15 00:38:37;;;;;;;2.75;2.50;;;14.30;66.60;;;;;;5055142;28;20504;-63
2022/05/15 00:41:04;;;;;;;2.97;2.60;;;14.30;66.60;;;;;;5045920;28;20033;-64
2022/05/15 00:43:41;;;;;;;4.25;2.83;;;14.20;66.60;;;;;;5049840;28;20040;-62
2022/05/15 00:46:11;;;;;;;3.97;2.65;;;14.20;67.10;;;;;;5044292;28;20036;-63
2022/05/15 00:48:37;;;;;;;6.38;2.85;;;14.20;67.00;;;;;;5042221;28;20423;-64
2022/05/15 00:51:11;;;;;;;3.90;2.85;;;14.20;66.90;;;;;;5043117;28;20033;-64
2022/05/15 00:53:38;;;;;;;3.88;2.58;;;14.10;67.50;;;;;;5047477;28;20037;-64
2022/05/15 00:56:04;;;;;;;3.40;2.42;;;14.10;67.20;;;;;;5047689;28;20607;-63
2022/05/15 00:58:32;;;;;;;8.60;2.70;;;14.10;67.30;;;;;;5041995;28;20037;-63
2022/05/15 01:00:58;;;;;;;4.60;2.53;;;14.10;67.30;;;;;;5048065;28;20032;-64
2022/05/15 01:03:24;;;;;;;4.43;2.70;;;14.00;67.30;;;;;;5043849;28;20098;-64
2022/05/15 01:05:55;;;;;;;3.63;2.50;;;14.00;67.30;;;;;;5047368;28;20583;-64
2022/05/15 01:08:23;;;;;;;2.88;2.60;;;14.00;67.60;;;;;;5043384;28;20040;-64
2022/05/15 01:10:53;;;;;;;3.75;2.65;;;13.90;67.30;;;;;;5043108;28;20036;-64
2022/05/15 01:13:21;;;;;;;3.42;2.30;;;13.90;67.80;;;;;;5042520;28;20547;-64
2022/05/15 01:15:48;;;;;;;6.38;2.75;;;13.90;67.60;;;;;;5049931;28;20033;-64
2022/05/15 01:18:20;;;;;;;2.67;2.42;;;13.90;67.60;;;;;;5042354;28;20036;-64
2022/05/15 01:20:46;;;;;;;2.42;2.22;;;13.90;67.70;;;;;;5038562;28;20041;-63
2022/05/15 01:23:12;;;;;;;2.83;2.63;;;13.90;67.40;;;;;;5046494;28;20497;-64
2022/05/15 01:25:38;;;;;;;5.18;2.70;;;13.90;67.30;;;;;;5045062;28;20040;-64
2022/05/15 01:28:03;;;;;;;3.35;2.38;;;13.90;67.10;;;;;;5050782;28;20047;-64
2022/05/15 01:30:30;;;;;;;3.15;2.85;;;13.80;67.10;;;;;;5048503;28;20504;-63
2022/05/15 01:32:55;;;;;;;2.72;2.53;;;13.80;67.10;;;;;;5044226;28;20039;-62
2022/05/15 01:35:21;;;;;;;3.20;2.80;;;13.70;67.10;;;;;;5039018;28;22665;-63
2022/05/15 01:37:47;;;;;;;4.53;2.70;;;13.60;67.20;;;;;;5051031;28;20053;-64
2022/05/15 01:40:13;;;;;;;4.95;2.80;;;13.50;67.20;;;;;;5047580;28;20060;-64
2022/05/15 01:42:39;;;;;;;3.50;2.55;;;13.50;67.60;;;;;;5050094;28;20040;-64
2022/05/15 01:45:06;;;;;;;2.67;2.33;;;13.50;67.90;;;;;;5046883;28;20029;-63
2022/05/15 01:47:32;;;;;;;4.88;3.20;;;13.40;67.90;;;;;;5044975;28;20039;-64
2022/05/15 01:49:57;;;;;;;3.78;2.70;;;13.40;68.10;;;;;;5043785;28;20025;-63
2022/05/15 01:52:23;;;;;;;3.35;2.80;;;13.40;67.80;;;;;;5043422;28;20033;-64
2022/05/15 01:54:49;;;;;;;3.88;2.47;;;13.40;67.80;;;;;;5046637;28;20029;-64
2022/05/15 01:57:15;;;;;;;3.13;2.60;;;13.30;67.80;;;;;;5051764;28;20126;-65
2022/05/15 01:59:40;;;;;;;3.10;2.83;;;13.30;67.90;;;;;;5049435;28;20033;-64
2022/05/15 02:02:07;;;;;;;3.80;2.83;;;13.20;68.00;;;;;;5043673;28;20044;-63
2022/05/15 02:04:33;;;;;;;2.95;2.53;;;13.20;68.30;;;;;;5043851;28;20146;-64
2022/05/15 02:06:59;;;;;;;3.67;2.50;;;13.10;69.30;;;;;;5044260;28;20044;-64
2022/05/15 02:09:25;;;;;;;3.78;2.80;;;13.00;68.60;;;;;;5046450;28;20029;-65
2022/05/15 02:11:51;;;;;;;7.45;3.05;;;13.00;68.70;;;;;;5052047;28;20047;-64
2022/05/15 02:14:16;;;;;;;4.30;2.92;;;13.00;68.70;;;;;;5049492;28;20041;-64
2022/05/15 02:16:42;;;;;;;4.75;2.85;;;13.00;68.80;;;;;;5048363;28;20504;-64
2022/05/15 02:19:08;;;;;;;4.28;2.85;;;13.00;68.70;;;;;;5041074;28;20036;-64
2022/05/15 02:21:33;;;;;;;4.65;3.10;;;12.90;68.70;;;;;;5043071;28;20041;-63
2022/05/15 02:23:59;;;;;;;3.25;2.67;;;12.90;68.80;;;;;;5045379;28;20063;-64
2022/05/15 02:26:25;;;;;;;4.97;3.38;;;12.80;69.00;;;;;;5048541;28;20330;-64
2022/05/15 02:28:51;;;;;;;2.97;2.65;;;12.80;69.00;;;;;;5052308;28;20056;-64
2022/05/15 02:31:17;;;;;;;5.30;3.03;;;12.70;69.10;;;;;;5056507;28;20408;-64
2022/05/15 02:33:43;;;;;;;3.85;2.90;;;12.70;69.00;;;;;;5046973;28;20037;-64
2022/05/15 02:36:09;;;;;;;3.13;2.90;;;12.70;69.20;;;;;;5043656;28;20500;-64
2022/05/15 02:38:36;;;;;;;3.13;2.83;;;12.60;69.20;;;;;;5050811;28;20118;-64
2022/05/15 02:41:02;;;;;;;6.35;3.05;;;12.60;69.30;;;;;;5053951;28;20598;-64
2022/05/15 02:43:28;;;;;;;4.88;2.95;;;12.50;69.50;;;;;;5048856;28;20044;-64
2022/05/15 02:45:54;;;;;;;3.13;2.60;;;12.50;69.60;;;;;;5055097;28;20033;-64
2022/05/15 02:51:04;;;;;;;6.18;3.08;;;12.30;69.80;;;;;;5052999;28;20067;-64
2022/05/15 02:53:34;;;;;;;4.85;2.72;;;12.30;69.90;;;;;;5054359;28;20112;-62
2022/05/15 02:56:02;;;;;;;4.13;2.90;;;12.20;70.20;;;;;;5053876;28;20056;-64
2022/05/15 02:58:29;;;;;;;4.63;2.90;;;12.20;70.20;;;;;;5044956;28;20032;-64
2022/05/15 03:00:56;;;;;;;3.88;2.97;;;12.20;71.20;;;;;;5052524;28;20091;-64
2022/05/15 03:03:26;;;;;;;4.13;3.20;;;12.10;70.60;;;;;;5049413;28;20093;-63
2022/05/15 03:05:53;;;;;;;3.45;3.10;;;12.10;70.70;;;;;;5048379;28;20543;-64
2022/05/15 03:08:18;;;;;;;4.30;3.20;;;12.00;70.60;;;;;;5046579;28;20103;-64
2022/05/15 03:10:44;;;;;;;3.55;3.00;;;12.00;70.60;;;;;;5048323;28;20442;-64
2022/05/15 03:13:09;;;;;;;3.92;2.97;;;12.00;70.70;;;;;;5045195;28;20124;-64
2022/05/15 03:15:35;;;;;;;6.45;3.05;;;12.00;70.90;;;;;;5049706;28;21269;-64
2022/05/15 03:18:01;;;;;;;3.15;2.90;;;11.90;71.00;;;;;;5048952;28;20086;-64
2022/05/15 03:20:27;;;;;;;5.03;3.00;;;11.90;71.20;;;;;;5051653;28;20125;-64
2022/05/15 03:22:57;;;;;;;3.72;2.95;;;11.90;71.30;;;;;;5063180;28;20029;-65
2022/05/15 03:25:26;;;;;;;5.88;2.60;;;11.90;71.80;;;;;;5049163;28;20443;-64
2022/05/15 03:27:52;;;;;;;3.10;2.83;;;12.00;71.80;;;;;;5053637;28;20091;-64
2022/05/15 03:30:18;;;;;;;4.30;2.80;;;12.00;71.80;;;;;;5050356;28;20029;-64
2022/05/15 03:32:44;;;;;;;4.53;2.78;;;12.00;71.50;;;;;;5051228;28;20133;-64
2022/05/15 03:35:11;;;;;;;5.20;3.00;;;12.10;71.30;;;;;;5044543;28;20033;-64
2022/05/15 03:37:38;;;;;;;2.63;2.42;;;12.10;71.30;;;;;;5044390;28;20159;-64
2022/05/15 03:40:05;;;;;;;5.07;3.10;;;12.10;71.10;;;;;;5049670;28;20032;-64
2022/05/15 03:42:31;;;;;;;3.03;2.75;;;12.10;71.20;;;;;;5052747;28;20087;-64
2022/05/15 03:44:57;;;;;;;5.57;2.75;;;12.10;71.20;;;;;;5048167;28;20093;-65
2022/05/15 03:47:24;;;;;;;3.50;2.95;;;12.00;71.20;;;;;;5048424;28;20107;-64
2022/05/15 03:49:50;;;;;;;3.55;2.95;;;12.10;71.30;;;;;;5049077;28;20040;-64
2022/05/15 03:52:16;;;;;;;4.55;2.90;;;12.00;71.30;;;;;;5040589;28;20098;-64
2022/05/15 03:54:43;;;;;;;5.55;2.88;;;12.00;71.30;;;;;;5043895;28;20029;-62
2022/05/15 03:57:08;;;;;;;2.90;2.67;;;12.00;71.10;;;;;;5043088;28;20036;-63
2022/05/15 03:59:37;;;;;;;4.00;2.85;;;12.00;70.90;;;;;;5048718;28;20033;-64
2022/05/15 04:02:05;;;;;;;4.68;2.90;;;12.00;70.90;;;;;;5052465;28;20047;-64
2022/05/15 04:04:32;;;;;;;3.85;2.90;;;12.00;71.00;;;;;;5046683;28;20033;-64
2022/05/15 04:06:59;;;;;;;5.95;3.08;;;11.90;71.10;;;;;;5046767;28;20127;-63
2022/05/15 04:09:24;;;;;;;3.95;2.90;;;11.90;72.00;;;;;;5046713;28;20511;-63
2022/05/15 04:11:50;;;;;;;4.13;2.75;;;11.80;71.20;;;;;;5045089;28;20052;-64
2022/05/15 04:14:16;;;;;;;3.10;2.72;;;11.80;71.40;;;;;;5049324;28;20470;-64
2022/05/15 04:16:43;;;;;;;4.70;2.80;;;11.80;71.50;;;;;;5047009;28;20121;-64
2022/05/15 04:19:09;;;;;;;3.15;2.85;;;11.70;72.40;;;;;;5046170;28;20033;-64
2022/05/15 04:21:40;;;;;;;3.42;2.70;;;11.70;71.60;;;;;;5048801;28;20051;-64
2022/05/15 04:24:08;;;;;;;3.30;3.00;;;11.70;71.60;;;;;;5049487;28;20052;-63
2022/05/15 04:26:36;;;;;;;4.05;3.22;;;11.70;71.90;;;;;;5046095;28;20047;-63
2022/05/15 04:29:02;;;;;;;3.25;2.90;;;11.70;72.00;;;;;;5051456;28;20451;-64
2022/05/15 04:31:28;;;;;;;3.17;2.90;;;11.70;72.20;;;;;;5054313;28;20086;-64
2022/05/15 04:33:54;;;;;;;3.38;2.95;;;11.70;72.30;;;;;;5048380;28;20037;-64
2022/05/15 04:36:19;;;;;;;5.70;2.95;;;11.60;72.30;;;;;;5050260;28;20518;-63
2022/05/15 04:38:45;;;;;;;3.53;2.90;;;11.60;72.40;;;;;;5048454;28;20041;-64
2022/05/15 04:41:11;;;;;;;4.30;2.90;;;11.70;72.50;;;;;;5044865;28;20503;-63
2022/05/15 04:43:36;;;;;;;3.85;3.00;;;11.60;72.50;;;;;;5051518;28;20087;-65
2022/05/15 04:46:07;;;;;;;2.88;2.67;;;11.60;72.50;;;;;;5047121;28;20131;-64
2022/05/15 04:48:39;;;;;;;4.07;2.95;;;11.70;72.70;;;;;;5048437;28;20562;-64
2022/05/15 04:51:05;;;;;;;4.05;3.17;;;11.70;72.90;;;;;;5047065;28;20356;-64
2022/05/15 04:53:30;;;;;;;4.47;3.05;;;11.70;73.10;;;;;;5042413;28;20032;-63
2022/05/15 04:55:57;;;;;;;3.75;2.38;;;11.70;73.20;;;;;;5047191;28;20040;-64
2022/05/15 04:58:23;;;;;;;5.03;2.47;;;11.70;73.30;;;;;;5053389;28;20039;-64
2022/05/15 05:00:49;;;;;;;4.50;2.85;;;11.80;73.50;;;;;;5044851;28;20036;-64
2022/05/15 05:03:15;;;;;;;3.45;3.15;;;11.80;73.50;;;;;;5049141;28;20036;-64
2022/05/15 05:05:40;;;;;;;3.22;2.58;;;11.90;73.70;;;;;;5046360;28;20047;-64
2022/05/15 05:08:08;;;;;;;3.00;2.63;;;11.90;73.70;;;;;;5049367;28;20040;-64
2022/05/15 05:10:33;;;;;;;3.40;2.90;;;12.00;73.80;;;;;;5044882;28;20083;-64
2022/05/15 05:12:59;;;;;;;3.67;2.75;;;12.10;74.00;;;;;;5045154;28;20028;-65
2022/05/15 05:15:25;;;;;;;3.17;2.80;;;12.10;74.40;;;;;;5047422;28;21444;-63
2022/05/15 05:17:50;;;;;;;3.22;2.80;;;12.20;74.60;;;;;;5044264;28;20477;-64
2022/05/15 05:20:16;;;;;;;4.03;3.03;;;12.30;74.60;;;;;;5043887;28;20373;-64
2022/05/15 05:22:42;;;;;;;3.63;3.08;;;12.40;74.40;;;;;;5046850;28;20033;-65
2022/05/15 05:25:09;;;;;;;6.75;3.83;;;12.50;74.20;;;;;;5041974;28;20085;-64
2022/05/15 05:27:37;;;;;;;5.30;3.17;;;12.60;73.90;;;;;;5043094;28;20076;-64
2022/05/15 05:30:04;;;;;;;5.18;2.97;;;12.70;73.30;;;;;;5043808;28;20028;-64
2022/05/15 05:32:30;;;;;;;5.18;3.45;;;12.80;73.20;;;;;;5043173;28;20442;-64
2022/05/15 05:34:56;;;;;;;3.47;3.17;;;12.90;73.00;;;;;;5040538;28;20033;-65
2022/05/15 05:37:22;;;;;;;4.13;3.20;;;13.00;73.20;;;;;;5045992;28;20399;-65
2022/05/15 05:39:47;;;;;;;3.78;3.28;;;13.20;73.30;;;;;;5041869;28;20443;-65
2022/05/15 05:42:13;;;;;;;4.45;3.38;;;13.30;73.50;;;;;;5043966;28;20659;-64
2022/05/15 05:44:39;;;;;;;4.30;3.42;;;13.40;73.60;;;;;;5042680;28;20044;-64
2022/05/15 05:47:05;;;;;;;3.33;2.75;;;13.50;73.20;;;;;;5040810;28;20147;-65
2022/05/15 05:49:30;;;;;;;4.57;2.65;;;13.60;72.80;;;;;;5050756;28;20037;-64
2022/05/15 05:51:56;;;;;;;4.13;3.20;;;13.80;72.30;;;;;;5046261;28;20039;-65
2022/05/15 05:54:21;;;;;;;3.42;3.13;;;13.90;72.10;;;;;;5047157;28;20048;-64
2022/05/15 05:56:47;;;;;;;4.45;3.30;;;14.00;71.80;;;;;;5050955;28;20060;-65
2022/05/15 05:59:13;;;;;;;6.35;2.90;;;14.10;71.80;;;;;;5050479;28;20119;-64
2022/05/15 06:01:38;;;;;;;4.20;3.03;;;14.30;71.40;;;;;;5047878;28;20052;-65
2022/05/15 06:06:48;;;;;;;3.53;3.00;;;14.50;70.70;;;;;;5052873;28;20071;-65
2022/05/15 06:09:13;;;;;;;5.68;3.03;;;14.60;70.50;;;;;;5054375;28;20028;-64
2022/05/15 06:11:39;;;;;;;4.20;3.10;;;14.70;70.00;;;;;;5043651;28;20524;-64
2022/05/15 06:14:05;;;;;;;4.40;2.90;;;14.80;69.70;;;;;;5053530;28;20029;-64
2022/05/15 06:16:33;;;;;;;3.28;2.70;;;14.90;69.40;;;;;;5047920;28;20043;-64
2022/05/15 06:18:59;;;;;;;5.40;3.30;;;15.00;69.20;;;;;;5049980;28;20036;-65
2022/05/15 06:21:25;;;;;;;4.25;3.08;;;15.10;69.00;;;;;;5045530;28;20118;-63
2022/05/15 06:23:51;;;;;;;4.55;3.00;;;15.20;68.60;;;;;;5050394;28;20495;-65
2022/05/15 06:26:17;;;;;;;5.70;2.75;;;15.30;68.50;;;;;;5046697;28;20033;-64
2022/05/15 06:28:42;;;;;;;5.53;3.15;;;15.40;68.60;;;;;;5051121;28;20728;-64
2022/05/15 06:31:08;;;;;;;4.45;3.00;;;15.50;68.60;;;;;;5046184;28;20120;-65
2022/05/15 06:33:34;;;;;;;3.40;3.05;;;15.60;68.30;;;;;;5044053;28;20385;-64
2022/05/15 06:36:00;;;;;;;5.18;3.40;;;15.60;68.10;;;;;;5048841;28;20036;-64
2022/05/15 06:38:26;;;;;;;5.65;3.17;;;15.70;68.80;;;;;;5045178;28;20037;-65
2022/05/15 06:40:52;;;;;;;4.40;3.33;;;15.80;67.70;;;;;;5047913;28;20087;-66
2022/05/15 06:43:17;;;;;;;5.05;3.47;;;15.80;67.80;;;;;;5044787;28;20032;-64
2022/05/15 06:45:43;;;;;;;4.88;3.03;;;15.90;68.00;;;;;;5047421;28;20502;-64
2022/05/15 06:48:09;;;;;;;2.97;2.72;;;15.90;67.80;;;;;;5043945;28;20518;-65
2022/05/15 06:50:35;;;;;;;5.50;3.20;;;16.00;67.90;;;;;;5036415;28;20082;-65
2022/05/15 06:53:01;;;;;;;3.28;3.05;;;16.10;68.00;;;;;;5050421;28;20041;-66
2022/05/15 06:55:26;;;;;;;4.85;3.53;;;16.20;67.90;;;;;;5050830;28;20508;-66
2022/05/15 06:57:52;;;;;;;3.65;3.30;;;16.20;67.90;;;;;;5053056;28;20523;-65
2022/05/15 07:00:25;;;;;;;5.28;3.85;;;16.40;68.00;;;;;;5050784;28;20547;-64
2022/05/15 07:02:51;;;;;;;5.93;3.80;;;16.40;68.00;;;;;;5047846;28;20576;-64
2022/05/15 07:05:27;;;;;;;6.60;3.65;;;16.50;67.60;;;;;;5049525;28;20043;-64
2022/05/15 07:07:53;;;;;;;4.03;3.40;;;16.60;67.40;;;;;;5059119;28;20033;-65
2022/05/15 07:10:20;;;;;;;4.95;3.22;;;16.70;67.50;;;;;;5056356;28;20507;-66
2022/05/15 07:12:45;;;;;;;4.38;3.42;;;16.80;67.10;;;;;;5055896;28;20043;-66
2022/05/15 07:15:11;;;;;;;5.03;3.15;;;16.80;66.40;;;;;;5055363;28;20527;-65
2022/05/15 07:17:37;;;;;;;4.28;3.53;;;16.90;66.00;;;;;;5059569;28;20028;-65
2022/05/15 07:20:04;;;;;;;4.05;3.40;;;17.00;66.10;;;;;;5055894;28;20037;-65
2022/05/15 07:22:29;;;;;;;5.65;3.38;;;17.10;66.20;;;;;;5057392;28;20152;-65
2022/05/15 07:24:55;;;;;;;4.60;3.53;;;17.20;65.90;;;;;;5048698;28;20525;-65
2022/05/15 07:27:21;;;;;;;4.60;3.45;;;17.30;65.90;;;;;;5053720;28;20149;-65
2022/05/15 07:29:46;;;;;;;4.95;3.47;;;17.40;65.90;;;;;;5055419;28;20061;-65
2022/05/15 07:32:12;;;;;;;7.18;3.38;;;17.50;65.90;;;;;;5055344;28;20507;-65
2022/05/15 07:34:39;;;;;;;4.57;4.07;;;17.60;65.90;;;;;;5051617;28;20036;-65
2022/05/15 07:37:05;;;;;;;5.70;3.55;;;17.70;65.90;;;;;;5056901;28;20289;-65
2022/05/15 07:39:31;;;;;;;4.60;3.80;;;17.80;65.90;;;;;;5053742;28;20127;-66
2022/05/15 07:41:57;;;;;;;5.88;3.47;;;17.90;65.70;;;;;;5054368;28;20048;-65
2022/05/15 07:44:23;;;;;;;7.20;3.47;;;18.00;65.80;;;;;;5053393;28;20565;-65
2022/05/15 07:46:48;;;;;;;4.60;3.55;;;18.10;65.40;;;;;;5055483;28;20067;-66
2022/05/15 07:49:14;;;;;;;3.80;3.40;;;18.20;66.30;;;;;;5051461;28;20059;-65
2022/05/15 07:51:44;;;;;;;5.32;3.45;;;18.30;65.20;;;;;;5051370;28;20032;-66
2022/05/15 07:54:11;;;;;;;4.80;3.67;;;18.40;65.00;;;;;;5052426;28;20419;-65
2022/05/15 07:56:37;;;;;;;5.65;3.28;;;18.50;64.60;;;;;;5052438;28;20581;-65
2022/05/15 07:59:03;;;;;;;4.47;3.92;;;18.60;64.50;;;;;;5051165;28;20075;-64
2022/05/15 08:01:29;;;;;;;3.97;3.17;;;18.70;64.80;;;;;;5054533;28;20064;-65
2022/05/15 08:03:55;;;;;;;6.90;3.50;;;18.80;64.60;;;;;;5052534;28;20036;-65
2022/05/15 08:09:07;;;;;;;4.45;3.22;;;19.10;63.30;;;;;;5050742;28;20090;-65
2022/05/15 08:11:33;;;;;;;3.67;3.25;;;19.20;63.00;;;;;;5053162;28;22788;-65
2022/05/15 08:14:00;;;;;;;4.60;3.47;;;19.30;62.60;;;;;;5056293;28;20029;-65
2022/05/15 08:16:27;;;;;;;3.78;3.05;;;19.40;62.60;;;;;;5056683;28;20025;-66
2022/05/15 08:24:22;;;;;;;6.20;2.97;;;19.70;62.10;;;;;;5057086;28;20043;-65
2022/05/15 08:26:48;;;;;;;3.90;3.00;;;19.80;62.20;;;;;;5060237;28;20443;-64
2022/05/15 08:29:14;;;;;;;3.53;2.90;;;20.00;61.80;;;;;;5054523;28;20025;-64
2022/05/15 08:31:40;;;;;;;5.88;2.88;;;20.10;61.30;;;;;;5052191;28;20039;-65
2022/05/15 08:34:07;;;;;;;2.92;2.67;;;20.20;61.10;;;;;;5051574;28;20033;-65
2022/05/15 08:36:33;;;;;;;6.68;3.17;;;20.30;60.50;;;;;;5052078;28;20095;-65
2022/05/15 08:38:59;;;;;;;4.00;3.00;;;20.40;60.30;;;;;;5050851;28;20471;-65
2022/05/15 08:41:40;;;;;;;5.47;3.10;;;20.60;60.30;;;;;;5052404;28;20129;-65
2022/05/15 08:44:14;;;;;;;3.03;2.70;;;20.70;58.90;;;;;;5047467;28;20124;-66
2022/05/15 08:46:49;;;;;;;2.95;2.60;;;20.80;59.60;;;;;;5052587;28;21640;-65
2022/05/15 08:49:27;;;;;;;3.67;2.97;;;20.90;60.00;;;;;;5050476;28;20500;-65
2022/05/15 08:52:14;;;;;;;4.22;3.25;;;21.00;59.70;;;;;;5052763;28;20124;-65
2022/05/15 08:54:54;;;;;;;4.20;3.10;;;21.20;59.20;;;;;;5048748;28;20589;-65
2022/05/15 08:57:44;;;;;;;4.78;3.17;;;21.30;58.90;;;;;;5052111;28;20040;-65
2022/05/15 09:00:14;;;;;;;4.65;3.40;;;21.40;58.70;;;;;;5049956;28;20029;-65
2022/05/15 09:02:42;;;;;;;3.25;2.70;;;21.50;59.20;;;;;;5045532;28;20496;-65
2022/05/15 09:05:09;;;;;;;3.85;2.85;;;21.70;58.90;;;;;;5054421;28;20037;-65
2022/05/15 09:07:47;;;;;;;2.72;2.42;;;21.80;58.70;;;;;;5048586;28;20119;-65
2022/05/15 09:10:28;;;;;;;4.60;2.63;;;21.90;58.00;;;;;;5056910;28;20048;-65
2022/05/15 09:13:37;;;;;;;3.75;2.55;;;22.00;58.40;;;;;;5052030;28;20206;-65
2022/05/15 09:16:08;;;;;;;4.65;2.60;;;22.20;57.90;;;;;;5052621;28;20036;-64
2022/05/15 09:18:37;;;;;;;4.38;3.00;;;22.30;58.90;;;;;;5052997;28;20025;-66
2022/05/15 09:21:14;;;;;;;4.25;2.40;;;22.50;57.10;;;;;;5055362;28;20044;-64
2022/05/15 09:23:52;;;;;;;5.13;2.30;;;22.70;57.30;;;;;;5052922;28;20025;-66
2022/05/15 09:26:30;;;;;;;3.60;2.25;;;22.80;56.50;;;;;;5053224;28;20037;-66
2022/05/15 09:29:00;;;;;;;3.90;2.10;;;22.90;56.20;;;;;;5052984;28;20507;-66
2022/05/15 09:31:36;;;;;;;3.88;1.50;;;23.10;56.80;;;;;;5052162;28;20067;-67
2022/05/15 09:34:20;;;;;;;2.00;1.45;;;23.20;54.40;;;;;;5050814;28;20036;-66
2022/05/15 09:36:47;;;;;;;3.08;1.30;;;23.40;53.90;;;;;;5055854;28;20445;-66
2022/05/15 09:39:24;;;;;;;2.47;1.50;;;23.50;54.20;;;;;;5056366;28;20056;-66
2022/05/15 09:44:49;;;;;;;2.65;1.40;;;23.80;52.10;;;;;;5056594;28;20059;-66
2022/05/15 09:47:32;;;;;;;2.72;1.70;;;23.90;53.40;;;;;;5054057;28;20574;-66
2022/05/15 09:49:59;;;;;;;3.05;2.13;;;24.10;52.90;;;;;;5055072;28;20037;-66
2022/05/15 09:52:38;;;;;;;2.22;1.50;;;24.20;52.80;;;;;;5051249;28;20430;-67
2022/05/15 09:55:19;;;;;;;1.73;1.35;;;24.30;51.10;;;;;;5052780;28;20521;-66
2022/05/15 09:57:54;;;;;;;2.35;1.38;;;24.50;51.00;;;;;;5057191;28;20124;-66
2022/05/15 10:00:22;;;;;;;3.20;1.38;;;24.50;50.10;;;;;;5058165;28;20048;-66
2022/05/15 10:02:51;;;;;;;2.63;1.27;;;24.70;50.80;;;;;;5060019;28;20044;-66
2022/05/15 10:05:20;;;;;;;1.83;1.30;;;24.70;50.00;;;;;;5059366;28;20045;-67
2022/05/15 10:08:01;;;;;;;2.17;1.35;;;24.80;49.80;;;;;;5060029;28;20028;-66
2022/05/15 10:10:35;;;;;;;1.95;1.20;;;24.90;49.00;;;;;;5060156;28;20047;-66
2022/05/15 10:13:11;;;;;;;1.85;1.15;;;25.00;48.30;;;;;;5058403;28;20466;-66
2022/05/15 10:15:43;;;;;;;3.80;1.20;;;25.00;48.10;;;;;;5056073;28;20033;-66
2022/05/15 10:18:19;;;;;;;2.47;1.40;;;25.10;48.20;;;;;;5059720;28;20047;-67
2022/05/15 10:20:47;;;;;;;2.00;1.48;;;25.20;48.00;;;;;;5048577;28;20406;-66
2022/05/15 10:23:28;;;;;;;1.98;1.17;;;25.30;48.10;;;;;;5058569;28;20045;-67
2022/05/15 10:26:08;;;;;;;1.55;1.27;;;25.30;46.70;;;;;;5057750;28;20033;-66
2022/05/15 10:28:44;;;;;;;4.90;1.30;;;25.40;47.10;;;;;;5050658;28;20033;-66
2022/05/15 10:31:37;;;;;;;2.50;1.30;;;25.50;47.30;;;;;;5050435;28;20510;-66
2022/05/15 10:34:10;;;;;;;2.75;1.50;;;25.50;47.30;;;;;;5048984;28;20479;-66
2022/05/15 10:36:54;;;;;;;1.67;1.50;;;25.60;48.00;;;;;;5046383;28;20048;-67
2022/05/15 10:39:32;;;;;;;2.40;1.30;;;25.60;47.90;;;;;;5047227;28;20060;-66
2022/05/15 10:42:23;;;;;;;3.50;1.40;;;25.60;47.50;;;;;;5050373;28;20037;-66
2022/05/15 10:45:08;;;;;;;2.92;1.15;;;25.70;47.50;;;;;;5038067;28;20032;-65
2022/05/15 10:47:43;;;;;;;2.90;1.48;;;25.70;47.00;;;;;;5043885;28;20163;-67
2022/05/15 10:50:18;;;;;;;2.85;1.60;;;25.80;46.40;;;;;;5045671;28;20048;-65
2022/05/15 10:52:58;;;;;;;2.75;1.27;;;25.80;47.20;;;;;;5043546;28;20064;-65
2022/05/15 10:58:31;;;;;;;2.10;1.15;;;25.90;47.20;;;;;;5047017;28;20035;-66
2022/05/15 11:01:00;;;;;;;1.38;1.27;;;26.00;46.30;;;;;;5046255;28;20044;-66
2022/05/15 11:03:48;;;;;;;1.63;1.27;;;26.00;47.00;;;;;;5049162;28;20065;-66
2022/05/15 11:06:37;;;;;;;2.55;1.40;;;26.10;46.30;;;;;;5046782;28;20533;-66
2022/05/15 11:09:18;;;;;;;1.85;1.48;;;26.10;45.00;;;;;;5021697;28;20053;-65
2022/05/15 11:12:08;;;;;;;1.88;1.30;;;26.10;45.50;;;;;;5041629;28;20037;-67
2022/05/15 11:14:49;;;;;;;1.65;1.35;;;26.10;45.70;;;;;;5044582;28;20231;-67
2022/05/15 11:17:32;;;;;;;1.80;1.20;;;26.10;46.00;;;;;;5046458;28;20492;-65
2022/05/15 11:20:07;;;;;;;1.90;1.40;;;26.10;46.10;;;;;;5047330;28;20025;-65
2022/05/15 11:22:41;;;;;;;;;;;26.10;45.40;;;;;;5047190;28;20048;-67
2022/05/15 11:25:19;;;;;;;2.65;1.40;;;26.20;46.90;;;;;;5054613;28;20014;-66
2022/05/15 11:27:57;;;;;;;3.95;1.42;;;26.20;45.30;;;;;;5052148;28;20051;-66
2022/05/15 11:30:27;;;;;;;2.15;1.33;;;26.20;45.70;;;;;;5057814;28;20037;-66
2022/05/15 11:32:52;;;;;;;1.48;1.15;;;26.20;45.20;;;;;;5057063;28;20044;-66
2022/05/15 11:35:18;;;;;;;1.77;1.27;;;26.20;45.60;;;;;;5056908;28;20058;-66
2022/05/15 11:37:52;;;;;;;1.67;1.20;;;26.20;45.80;;;;;;5056352;28;20037;-66
2022/05/15 11:40:39;;;;;;;2.28;1.27;;;26.20;44.80;;;;;;5056997;28;20040;-66
2022/05/15 11:43:30;;;;;;;3.58;1.30;;;26.30;44.80;;;;;;5057458;28;20028;-66
2022/05/15 11:45:57;;;;;;;1.88;1.10;;;26.30;44.20;;;;;;5028009;28;20452;-66
2022/05/15 11:48:37;;;;;;;1.65;1.17;;;26.30;44.30;;;;;;5058351;28;20042;-66
2022/05/15 11:51:15;;;;;;;2.42;1.10;;;26.40;42.80;;;;;;5056703;28;20617;-66
2022/05/15 11:54:01;;;;;;;2.30;1.20;;;26.40;43.10;;;;;;5058576;28;20033;-66
2022/05/15 11:56:40;;;;;;;3.05;1.30;;;26.40;42.70;;;;;;5055928;28;20048;-66
2022/05/15 11:59:15;;;;;;;2.00;1.30;;;26.40;43.80;;;;;;5055691;28;20507;-67
2022/05/15 12:01:48;;;;;;;;;;;26.40;43.00;;;;;;5057287;28;20099;-67
2022/05/15 12:04:20;;;;;;;1.60;1.25;;;26.40;44.70;;;;;;5056654;28;19955;-66
2022/05/15 12:06:58;;;;;;;1.67;1.40;;;26.40;43.80;;;;;;5057441;28;20120;-66
2022/05/15 12:09:29;;;;;;;3.85;1.20;;;26.50;43.40;;;;;;5058327;28;20033;-66
2022/05/15 12:11:58;;;;;;;3.30;1.25;;;26.50;43.50;;;;;;5057875;28;20040;-67
2022/05/15 12:14:27;;;;;;;1.63;1.40;;;26.40;44.10;;;;;;5066367;28;20104;-68
2022/05/15 12:16:58;;;;;;;2.75;1.23;;;26.50;43.70;;;;;;5054828;28;20047;-66
2022/05/15 12:19:26;;;;;;;6.07;1.65;;;26.50;43.50;;;;;;5057970;28;20391;-66
2022/05/15 12:21:54;;;;;;;1.40;1.20;;;26.60;43.10;;;;;;5064442;28;20503;-66
2022/05/15 12:24:29;;;;;;;4.47;1.13;;;26.60;42.80;;;;;;5056080;28;20158;-67
2022/05/15 12:26:54;;;;;;;;;;;26.60;42.90;;;;;;5057135;28;20032;-66
2022/05/15 12:29:51;;;;;;;1.17;0.98;;;26.60;42.50;;;;;;5056074;28;20425;-67
2022/05/15 12:32:34;;;;;;;1.40;1.17;;;26.60;41.10;;;;;;5055563;28;20029;-66
2022/05/15 12:35:00;;;;;;;1.73;1.10;;;26.60;42.00;;;;;;5054662;28;20036;-66
2022/05/15 12:37:34;;;;;;;2.58;1.40;;;26.60;42.00;;;;;;5055856;28;20060;-66
2022/05/15 12:40:02;;;;;;;2.13;1.30;;;26.60;41.40;;;;;;5057773;28;20033;-66
2022/05/15 12:42:36;;;;;;;2.70;1.15;;;26.60;42.50;;;;;;5052999;28;20098;-66
2022/05/15 12:45:14;;;;;;;3.05;1.20;;;26.60;42.20;;;;;;5056230;28;20623;-66
2022/05/15 12:47:41;;;;;;;3.15;1.10;;;26.60;41.80;;;;;;5055822;28;20057;-67
2022/05/15 12:50:21;;;;;;;2.65;1.25;;;26.60;42.60;;;;;;5056558;28;20037;-67
2022/05/15 12:52:58;;;;;;;2.45;0.93;;;26.60;42.20;;;;;;5056592;28;20044;-66
2022/05/15 12:55:29;;;;;;;1.02;1.02;;;26.60;42.20;;;;;;5054759;28;20391;-66
2022/05/15 12:57:57;;;;;;;1.55;1.00;;;26.70;42.30;;;;;;5056079;28;20032;-66
2022/05/15 13:00:31;;;;;;;1.90;0.93;;;26.70;42.00;;;;;;5056189;28;20032;-66
2022/05/15 13:03:01;;;;;;;1.58;1.27;;;26.70;41.30;;;;;;5056007;28;20036;-66
2022/05/15 13:05:33;;;;;;;0.82;0.73;;;26.70;42.10;;;;;;5056140;28;20063;-67
2022/05/15 13:08:05;;;;;;;2.15;1.10;;;26.80;41.20;;;;;;5053841;28;20564;-65
2022/05/15 13:10:33;;;;;;;1.75;1.02;;;26.80;41.80;;;;;;5054593;28;20447;-66
2022/05/15 13:13:14;;;;;;;1.83;1.30;;;26.80;41.50;;;;;;5050596;28;20082;-66
2022/05/15 13:15:45;;;;;;;3.47;1.08;;;26.80;40.70;;;;;;5054202;28;20037;-66
2022/05/15 13:18:11;;;;;;;1.45;0.95;;;26.70;40.10;;;;;;5055373;28;20111;-66
2022/05/15 13:20:39;;;;;;;2.33;1.10;;;26.70;41.20;;;;;;5055792;28;20700;-66